createdAt,value
2018-05-13T00:01:48.913Z,5.67
2018-05-13T00:04:17.169Z,5.40
2018-05-13T00:06:45.430Z,7.13
2018-05-13T00:09:14.475Z,7.47
2018-05-13T00:11:42.781Z,8.50
2018-05-13T00:14:11.098Z,8.90
2018-05-13T00:16:39.470Z,6.60
2018-05-13T00:19:07.720Z,6.60
2018-05-13T00:21:36.733Z,7.00
2018-05-13T00:24:05.030Z,7.60
2018-05-13T00:26:33.345Z,7.40
2018-05-13T00:29:01.599Z,9.20
2018-05-13T00:31:29.946Z,11.03
2018-05-13T00:33:58.230Z,12.03
2018-05-13T00:36:26.478Z,12.73
2018-05-13T00:38:55.533Z,13.27
2018-05-13T00:41:23.812Z,12.63
2018-05-13T00:43:52.109Z,8.83
2018-05-13T00:46:20.509Z,6.87
2018-05-13T00:48:49.627Z,6.03
2018-05-13T00:51:17.906Z,6.70
2018-05-13T00:53:46.213Z,7.90
2018-05-13T00:56:14.560Z,7.20
2018-05-13T00:58:42.802Z,7.40
2018-05-13T01:01:11.841Z,8.70
2018-05-13T01:03:40.097Z,7.87
2018-05-13T01:06:08.361Z,6.10
2018-05-13T01:08:37.486Z,6.63
2018-05-13T01:11:05.763Z,6.53
2018-05-13T01:13:34.029Z,8.60
2018-05-13T01:16:02.310Z,6.47
2018-05-13T01:18:30.574Z,7.07
2018-05-13T01:20:58.857Z,7.23
2018-05-13T01:23:27.131Z,7.87
2018-05-13T01:25:55.463Z,7.40
2018-05-13T01:28:23.716Z,8.30
2018-05-13T01:30:52.089Z,7.60
2018-05-13T01:33:20.510Z,7.47
2018-05-13T01:35:48.824Z,8.33
2018-05-13T01:38:17.086Z,7.10
2018-05-13T01:40:46.198Z,7.90
2018-05-13T01:43:14.626Z,7.10
2018-05-13T01:45:42.957Z,9.97
2018-05-13T01:48:11.269Z,8.63
2018-05-13T01:50:39.603Z,6.83
2018-05-13T01:53:07.879Z,5.63
2018-05-13T01:55:36.128Z,7.50
2018-05-13T01:58:05.153Z,9.87
2018-05-13T02:00:33.428Z,6.40
2018-05-13T02:03:01.708Z,9.27
2018-05-13T02:05:29.962Z,6.63
2018-05-13T02:07:58.985Z,9.50
2018-05-13T02:10:27.236Z,7.43
2018-05-13T02:12:55.488Z,7.17
2018-05-13T02:15:23.762Z,8.10
2018-05-13T02:17:52.004Z,6.57
2018-05-13T02:20:20.265Z,7.75
2018-05-13T02:22:48.532Z,9.23
2018-05-13T02:25:16.777Z,9.20
2018-05-13T02:27:46.777Z,6.53
2018-05-13T02:30:15.180Z,10.97
2018-05-13T02:32:44.227Z,9.07
2018-05-13T02:35:12.584Z,7.90
2018-05-13T02:37:40.945Z,8.93
2018-05-13T02:40:09.221Z,9.03
2018-05-13T02:42:37.510Z,7.97
2018-05-13T02:45:05.780Z,9.20
2018-05-13T02:47:34.080Z,7.87
2018-05-13T02:50:02.333Z,8.97
2018-05-13T02:52:30.639Z,9.37
2018-05-13T02:54:58.896Z,6.70
2018-05-13T02:57:27.144Z,9.17
2018-05-13T02:59:56.192Z,7.93
2018-05-13T03:02:24.457Z,10.80
2018-05-13T03:04:52.715Z,8.90
2018-05-13T03:07:20.991Z,8.37
2018-05-13T03:09:49.251Z,10.63
2018-05-13T03:12:17.519Z,9.30
2018-05-13T03:14:46.631Z,8.90
2018-05-13T03:17:14.891Z,9.20
2018-05-13T03:19:43.909Z,9.27
2018-05-13T03:22:12.172Z,9.40
2018-05-13T03:24:40.462Z,7.80
2018-05-13T03:27:08.741Z,11.27
2018-05-13T03:29:37.012Z,11.67
2018-05-13T03:32:05.269Z,10.30
2018-05-13T03:34:33.533Z,9.83
2018-05-13T03:37:02.564Z,10.37
2018-05-13T03:39:30.838Z,11.30
2018-05-13T03:41:59.105Z,7.97
2018-05-13T03:44:27.386Z,9.63
2018-05-13T03:46:55.668Z,9.27
2018-05-13T03:49:23.913Z,8.57
2018-05-13T03:51:53.028Z,9.10
2018-05-13T03:54:21.293Z,10.60
2018-05-13T03:56:49.553Z,11.50
2018-05-13T03:59:18.588Z,9.50
2018-05-13T04:01:46.841Z,12.57
2018-05-13T04:04:15.097Z,12.23
2018-05-13T04:06:44.123Z,10.93
2018-05-13T04:09:30.984Z,10.03
2018-05-13T04:12:17.095Z,8.73
2018-05-13T04:18:12.381Z,10.00
2018-05-13T04:20:40.639Z,8.20
2018-05-13T04:23:08.929Z,8.47
2018-05-13T04:25:37.241Z,9.17
2018-05-13T04:28:05.515Z,9.93
2018-05-13T04:30:33.850Z,9.13
2018-05-13T04:33:02.213Z,9.27
2018-05-13T04:35:30.497Z,12.87
2018-05-13T04:37:58.754Z,9.37
2018-05-13T04:40:27.873Z,8.87
2018-05-13T04:42:56.157Z,8.77
2018-05-13T04:45:24.436Z,8.53
2018-05-13T04:47:52.796Z,11.30
2018-05-13T04:50:21.070Z,9.53
2018-05-13T04:52:49.360Z,11.87
2018-05-13T04:55:17.637Z,8.57
2018-05-13T04:57:45.905Z,7.90
2018-05-13T05:00:14.184Z,8.30
2018-05-13T05:02:42.445Z,9.50
2018-05-13T05:05:10.738Z,8.27
2018-05-13T05:07:38.988Z,8.97
2018-05-13T05:10:08.101Z,8.97
2018-05-13T05:12:36.365Z,8.50
2018-05-13T05:15:05.386Z,8.00
2018-05-13T05:17:33.663Z,8.07
2018-05-13T05:20:01.938Z,7.23
2018-05-13T05:22:30.184Z,6.77
2018-05-13T05:24:59.224Z,7.23
2018-05-13T05:27:27.478Z,8.20
2018-05-13T05:29:55.780Z,7.53
2018-05-13T05:32:24.121Z,7.07
2018-05-13T05:34:52.413Z,9.63
2018-05-13T05:37:20.657Z,6.70
2018-05-13T05:39:49.718Z,7.93
2018-05-13T05:42:17.970Z,8.87
2018-05-13T05:44:46.213Z,7.70
2018-05-13T05:47:14.496Z,8.93
2018-05-13T05:49:42.765Z,10.73
2018-05-13T05:52:11.870Z,8.60
2018-05-13T05:54:40.136Z,9.20
2018-05-13T05:57:09.149Z,10.70
2018-05-13T05:59:37.421Z,10.63
2018-05-13T06:02:05.690Z,8.27
2018-05-13T06:04:33.941Z,8.00
2018-05-13T06:07:03.060Z,8.83
2018-05-13T06:09:31.329Z,8.37
2018-05-13T06:12:00.437Z,7.90
2018-05-13T06:14:28.690Z,9.23
2018-05-13T06:16:57.804Z,9.90
2018-05-13T06:19:26.057Z,8.47
2018-05-13T06:21:55.233Z,9.67
2018-05-13T06:24:23.460Z,8.97
2018-05-13T06:26:51.732Z,8.40
2018-05-13T06:29:19.997Z,10.60
2018-05-13T06:31:49.044Z,11.07
2018-05-13T06:34:17.304Z,8.70
2018-05-13T06:36:45.571Z,12.57
2018-05-13T06:39:13.841Z,7.77
2018-05-13T06:41:42.096Z,19.40
2018-05-13T06:44:10.357Z,11.20
2018-05-13T06:46:39.409Z,7.60
2018-05-13T06:49:07.748Z,8.37
2018-05-13T06:51:36.024Z,8.23
2018-05-13T06:54:04.292Z,8.43
2018-05-13T06:56:33.324Z,8.90
2018-05-13T06:59:01.573Z,9.13
2018-05-13T07:01:29.857Z,9.77
2018-05-13T07:03:58.101Z,8.03
2018-05-13T07:06:27.220Z,8.00
2018-05-13T07:08:55.484Z,8.90
2018-05-13T07:11:24.506Z,8.07
2018-05-13T07:13:52.783Z,8.27
2018-05-13T07:16:21.089Z,7.73
2018-05-13T07:18:49.335Z,6.70
2018-05-13T07:21:17.611Z,9.10
2018-05-13T07:23:45.870Z,8.10
2018-05-13T07:26:14.124Z,7.17
2018-05-13T07:28:43.156Z,8.30
2018-05-13T07:31:11.547Z,9.10
2018-05-13T07:33:39.812Z,7.73
2018-05-13T07:36:08.085Z,7.70
2018-05-13T07:38:36.352Z,7.53
2018-05-13T07:41:05.625Z,6.10
2018-05-13T07:43:34.750Z,7.50
2018-05-13T07:46:03.022Z,7.80
2018-05-13T07:48:31.268Z,8.83
2018-05-13T07:50:59.616Z,7.73
2018-05-13T07:53:27.866Z,9.70
2018-05-13T07:55:56.127Z,7.33
2018-05-13T07:58:24.411Z,7.37
2018-05-13T08:00:52.681Z,6.07
2018-05-13T08:03:20.948Z,7.50
2018-05-13T08:05:50.069Z,9.05
2018-05-13T08:08:18.326Z,7.20
2018-05-13T08:10:46.572Z,6.00
2018-05-13T08:13:14.896Z,6.17
2018-05-13T08:15:43.178Z,6.07
2018-05-13T08:18:11.432Z,6.03
2018-05-13T08:20:39.705Z,7.13
2018-05-13T08:23:08.732Z,6.67
2018-05-13T08:25:37.092Z,8.68
2018-05-13T08:28:05.337Z,5.70
2018-05-13T08:30:34.456Z,9.10
2018-05-13T08:33:02.704Z,7.13
2018-05-13T08:35:31.836Z,5.57
2018-05-13T08:38:00.094Z,6.63
2018-05-13T08:40:29.129Z,5.40
2018-05-13T08:42:57.473Z,5.73
2018-05-13T08:45:25.744Z,5.77
2018-05-13T08:47:54.026Z,6.20
2018-05-13T08:50:22.283Z,4.87
2018-05-13T08:52:51.304Z,8.27
2018-05-13T08:55:19.552Z,6.67
2018-05-13T08:57:47.848Z,7.50
2018-05-13T09:00:16.124Z,6.53
2018-05-13T09:02:44.400Z,6.13
2018-05-13T09:05:12.653Z,5.97
2018-05-13T09:07:41.773Z,5.43
2018-05-13T09:10:10.020Z,5.63
2018-05-13T09:12:39.045Z,8.40
2018-05-13T09:15:07.320Z,6.60
2018-05-13T09:17:35.578Z,6.13
2018-05-13T09:20:04.593Z,6.80
2018-05-13T09:22:32.861Z,7.73
2018-05-13T09:25:01.121Z,5.80
2018-05-13T09:27:30.161Z,5.37
2018-05-13T09:29:58.423Z,6.43
2018-05-13T09:32:26.672Z,6.93
2018-05-13T09:34:55.686Z,6.27
2018-05-13T09:37:23.969Z,7.40
2018-05-13T09:39:52.247Z,5.80
2018-05-13T09:42:20.513Z,6.80
2018-05-13T09:44:48.885Z,6.00
2018-05-13T09:47:17.136Z,6.30
2018-05-13T09:49:45.389Z,6.90
2018-05-13T09:52:13.723Z,6.67
2018-05-13T09:54:41.976Z,5.27
2018-05-13T09:57:11.089Z,4.97
2018-05-13T09:59:39.365Z,5.70
2018-05-13T10:02:07.613Z,5.87
2018-05-13T10:04:36.633Z,5.70
2018-05-13T10:07:04.897Z,7.30
2018-05-13T10:09:34.473Z,4.80
2018-05-13T10:12:02.709Z,4.97
2018-05-13T10:14:31.068Z,4.37
2018-05-13T10:16:59.329Z,6.77
2018-05-13T10:19:28.537Z,4.20
2018-05-13T10:21:56.720Z,5.23
2018-05-13T10:24:24.995Z,5.20
2018-05-13T10:26:53.236Z,4.27
2018-05-13T10:29:22.269Z,5.57
2018-05-13T10:31:50.550Z,4.93
2018-05-13T10:34:18.816Z,4.78
2018-05-13T10:36:47.080Z,8.00
2018-05-13T10:39:16.188Z,4.60
2018-05-13T10:41:44.448Z,4.73
2018-05-13T10:44:13.809Z,4.18
2018-05-13T10:46:42.153Z,5.80
2018-05-13T10:49:10.415Z,4.70
2018-05-13T10:51:38.713Z,4.13
2018-05-13T10:54:06.961Z,5.30
2018-05-13T10:56:36.069Z,4.93
2018-05-13T10:59:04.345Z,4.30
2018-05-13T11:01:32.592Z,4.10
2018-05-13T11:04:01.717Z,5.00
2018-05-13T11:06:29.995Z,4.35
2018-05-13T11:08:58.269Z,4.00
2018-05-13T11:11:26.536Z,4.03
2018-05-13T11:13:55.551Z,4.17
2018-05-13T11:16:23.807Z,3.90
2018-05-13T11:18:52.173Z,4.47
2018-05-13T11:21:21.197Z,5.17
2018-05-13T11:23:49.444Z,5.13
2018-05-13T11:26:18.473Z,4.10
2018-05-13T11:28:47.657Z,4.37
2018-05-13T11:31:15.917Z,4.25
2018-05-13T11:33:45.045Z,3.47
2018-05-13T11:36:13.229Z,4.47
2018-05-13T11:38:41.577Z,3.97
2018-05-13T11:41:09.857Z,6.83
2018-05-13T11:43:38.105Z,4.07
2018-05-13T11:46:07.229Z,4.40
2018-05-13T11:48:35.497Z,4.07
2018-05-13T11:51:03.785Z,8.93
2018-05-13T11:53:32.096Z,8.57
2018-05-13T11:56:00.353Z,5.13
2018-05-13T11:58:28.612Z,3.83
2018-05-13T12:00:56.867Z,9.50
2018-05-13T12:03:25.896Z,3.70
2018-05-13T12:05:54.157Z,4.00
2018-05-13T12:08:22.418Z,5.10
2018-05-13T12:10:51.463Z,4.23
2018-05-13T12:13:19.715Z,4.53
2018-05-13T12:15:47.965Z,5.67
2018-05-13T12:18:16.993Z,4.80
2018-05-13T12:20:45.241Z,5.63
2018-05-13T12:23:13.524Z,4.53
2018-05-13T12:25:41.849Z,4.97
2018-05-13T12:28:10.068Z,6.30
2018-05-13T12:30:38.356Z,5.23
2018-05-13T12:33:06.631Z,4.60
2018-05-13T12:35:34.886Z,6.60
2018-05-13T12:38:04.006Z,7.23
2018-05-13T12:40:32.262Z,6.10
2018-05-13T12:43:01.370Z,13.80
2018-05-13T12:45:29.651Z,11.60
2018-05-13T12:47:57.920Z,18.13
2018-05-13T12:50:26.206Z,12.57
2018-05-13T12:52:54.466Z,13.60
2018-05-13T12:55:23.572Z,15.40
2018-05-13T12:57:51.833Z,16.00
2018-05-13T13:00:20.864Z,12.67
2018-05-13T13:02:49.141Z,19.60
2018-05-13T13:05:17.400Z,9.80
2018-05-13T13:07:45.675Z,8.27
2018-05-13T13:10:14.775Z,9.10
2018-05-13T13:12:43.024Z,6.27
2018-05-13T13:15:12.188Z,6.97
2018-05-13T13:17:40.412Z,7.37
2018-05-13T13:20:08.811Z,6.77
2018-05-13T13:22:36.936Z,6.33
2018-05-13T13:25:05.977Z,5.97
2018-05-13T13:27:34.237Z,7.07
2018-05-13T13:30:02.519Z,6.27
2018-05-13T13:32:30.804Z,5.80
2018-05-13T13:34:59.061Z,6.33
2018-05-13T13:37:27.314Z,6.33
2018-05-13T13:39:56.368Z,9.83
2018-05-13T13:42:24.713Z,10.20
2018-05-13T13:44:52.972Z,8.90
2018-05-13T13:47:22.058Z,6.60
2018-05-13T13:49:50.274Z,7.07
2018-05-13T13:52:18.524Z,9.40
2018-05-13T13:54:46.813Z,7.80
2018-05-13T13:57:15.087Z,6.93
2018-05-13T13:59:43.338Z,6.15
2018-05-13T14:02:12.457Z,7.10
2018-05-13T14:04:40.716Z,5.80
2018-05-13T14:07:09.732Z,7.60
2018-05-13T14:09:38.013Z,7.57
2018-05-13T14:12:06.299Z,6.40
2018-05-13T14:14:34.662Z,12.20
2018-05-13T14:17:02.937Z,7.40
2018-05-13T14:19:31.201Z,5.43
2018-05-13T14:22:00.224Z,9.33
2018-05-13T14:24:28.489Z,4.77
2018-05-13T14:26:56.796Z,6.87
2018-05-13T14:29:25.021Z,5.60
2018-05-13T14:31:54.067Z,4.60
2018-05-13T14:34:22.317Z,5.23
2018-05-13T14:36:50.572Z,7.87
2018-05-13T14:39:18.860Z,3.83
2018-05-13T14:41:47.137Z,5.23
2018-05-13T14:44:15.389Z,4.30
2018-05-13T14:46:44.429Z,3.93
2018-05-13T14:49:12.677Z,4.40
2018-05-13T14:51:40.922Z,2.90
2018-05-13T14:54:09.242Z,5.57
2018-05-13T14:56:37.514Z,3.33
2018-05-13T14:59:05.782Z,3.40
2018-05-13T15:01:34.048Z,4.90
2018-05-13T15:04:03.158Z,4.83
2018-05-13T15:06:31.449Z,4.17
2018-05-13T15:08:59.785Z,3.93
2018-05-13T15:11:28.929Z,4.83
2018-05-13T15:13:57.295Z,3.90
2018-05-13T15:16:25.698Z,4.33
2018-05-13T15:18:54.058Z,3.80
2018-05-13T15:21:22.363Z,6.97
2018-05-13T15:23:50.631Z,5.47
2018-05-13T15:26:18.904Z,4.47
2018-05-13T15:28:47.265Z,5.67
2018-05-13T15:31:15.605Z,5.17
2018-05-13T15:33:44.738Z,5.53
2018-05-13T15:36:13.182Z,5.97
2018-05-13T15:38:41.489Z,6.37
2018-05-13T15:41:09.751Z,6.77
2018-05-13T15:43:38.004Z,7.50
2018-05-13T15:46:06.305Z,7.30
2018-05-13T15:48:34.601Z,8.80
2018-05-13T15:51:02.961Z,9.80
2018-05-13T15:53:31.302Z,8.93
2018-05-13T15:55:59.666Z,11.73
2018-05-13T15:58:27.929Z,12.77
2018-05-13T16:00:56.226Z,13.10
2018-05-13T16:03:24.533Z,14.90
2018-05-13T16:05:53.673Z,14.97
2018-05-13T16:08:21.951Z,13.97
2018-05-13T16:10:50.333Z,14.73
2018-05-13T16:13:18.605Z,13.33
2018-05-13T16:15:46.986Z,13.10
2018-05-13T16:18:15.253Z,13.70
2018-05-13T16:20:43.509Z,15.33
2018-05-13T16:23:11.940Z,18.83
2018-05-13T16:25:40.240Z,19.13
2018-05-13T16:28:09.373Z,14.70
2018-05-13T16:30:37.750Z,16.60
2018-05-13T16:33:06.031Z,15.33
2018-05-13T16:35:34.375Z,14.80
2018-05-13T16:38:03.509Z,16.97
2018-05-13T16:40:31.804Z,16.83
2018-05-13T16:43:00.471Z,17.60
2018-05-13T16:45:28.947Z,21.30
2018-05-13T16:47:57.253Z,15.97
2018-05-13T16:50:25.610Z,20.73
2018-05-13T16:52:54.396Z,13.60
2018-05-13T16:55:24.151Z,15.60
2018-05-13T16:57:52.789Z,20.33
2018-05-13T17:00:21.577Z,23.67
2018-05-13T17:02:50.466Z,21.70
2018-05-13T17:05:19.356Z,19.90
2018-05-13T17:07:48.458Z,24.33
2018-05-13T17:10:16.775Z,20.70
2018-05-13T17:12:45.124Z,19.07
2018-05-13T17:15:15.026Z,19.03
2018-05-13T17:17:45.339Z,16.43
2018-05-13T17:20:15.038Z,15.53
2018-05-13T17:22:44.703Z,16.80
2018-05-13T17:25:14.604Z,17.53
2018-05-13T17:27:44.276Z,15.57
2018-05-13T17:30:14.983Z,17.13
2018-05-13T17:32:44.819Z,17.20
2018-05-13T17:35:14.802Z,12.80
2018-05-13T17:37:44.756Z,17.27
2018-05-13T17:40:15.695Z,16.37
2018-05-13T17:42:46.333Z,12.13
2018-05-13T17:45:17.055Z,11.50
2018-05-13T17:47:46.996Z,10.80
2018-05-13T17:50:17.192Z,10.47
2018-05-13T17:52:47.792Z,8.73
2018-05-13T17:55:18.307Z,7.07
2018-05-13T17:57:48.178Z,8.33
2018-05-13T18:00:18.879Z,8.97
2018-05-13T18:02:48.570Z,7.60
2018-05-13T18:05:19.436Z,6.47
2018-05-13T18:07:49.251Z,8.83
2018-05-13T18:10:19.158Z,8.37
2018-05-13T18:12:49.408Z,6.67
2018-05-13T18:15:20.190Z,7.80
2018-05-13T18:17:49.862Z,7.20
2018-05-13T18:20:20.625Z,6.13
2018-05-13T18:22:50.433Z,6.43
2018-05-13T18:25:20.330Z,5.87
2018-05-13T18:27:50.524Z,7.93
2018-05-13T18:30:21.381Z,4.30
2018-05-13T18:32:51.999Z,5.77
2018-05-13T18:35:22.609Z,5.17
2018-05-13T18:37:52.787Z,5.90
2018-05-13T18:40:22.650Z,8.80
2018-05-13T18:42:52.690Z,7.20
2018-05-13T18:45:24.165Z,4.80
2018-05-13T18:47:54.652Z,5.20
2018-05-13T18:50:24.546Z,6.03
2018-05-13T18:52:54.349Z,5.17
2018-05-13T18:55:24.223Z,6.10
2018-05-13T18:57:54.217Z,4.93
2018-05-13T19:00:24.967Z,5.87
2018-05-13T19:02:55.600Z,4.63
2018-05-13T19:05:25.485Z,5.13
2018-05-13T19:07:56.514Z,6.03
2018-05-13T19:10:26.416Z,6.03
2018-05-13T19:12:56.362Z,4.90
2018-05-13T19:15:27.290Z,6.47
2018-05-13T19:17:57.924Z,8.13
2018-05-13T19:20:28.601Z,11.30
2018-05-13T19:22:58.386Z,8.03
2018-05-13T19:25:28.996Z,6.70
2018-05-13T19:27:58.960Z,8.70
2018-05-13T19:30:28.942Z,5.90
2018-05-13T19:32:59.693Z,6.50
2018-05-13T19:35:29.634Z,5.90
2018-05-13T19:37:59.568Z,6.40
2018-05-13T19:40:29.466Z,6.57
2018-05-13T19:42:59.629Z,6.67
2018-05-13T19:45:30.731Z,7.90
2018-05-13T19:48:00.616Z,7.00
2018-05-13T19:50:30.707Z,7.57
2018-05-13T19:53:00.485Z,6.20
2018-05-13T19:55:30.423Z,6.63
2018-05-13T19:58:01.147Z,7.30
2018-05-13T20:00:31.894Z,6.80
2018-05-13T20:03:02.043Z,7.70
2018-05-13T20:05:32.930Z,8.63
2018-05-13T20:08:02.780Z,10.10
2018-05-13T20:10:33.514Z,9.70
2018-05-13T20:13:03.955Z,12.43
2018-05-13T20:15:34.778Z,12.33
2018-05-13T20:18:05.475Z,16.17
2018-05-13T20:20:35.457Z,9.30
2018-05-13T20:23:22.732Z,12.30
2018-05-13T20:25:53.486Z,11.63
2018-05-13T20:28:24.043Z,12.90
2018-05-13T20:30:54.105Z,10.07
2018-05-13T20:33:24.039Z,8.97
2018-05-13T20:35:54.009Z,10.13
2018-05-13T20:38:23.885Z,6.77
2018-05-13T20:40:54.724Z,9.30
2018-05-13T20:43:25.455Z,8.07
2018-05-13T20:45:56.079Z,11.00
2018-05-13T20:48:26.586Z,11.33
2018-05-13T20:50:56.546Z,8.27
2018-05-13T20:53:26.501Z,8.90
2018-05-13T20:55:56.394Z,8.63
2018-05-13T20:58:26.449Z,8.30
2018-05-13T21:00:56.375Z,7.33
2018-05-13T21:03:25.978Z,7.33
2018-05-13T21:05:55.830Z,6.85
2018-05-13T21:08:25.606Z,8.10
2018-05-13T21:10:55.442Z,8.90
2018-05-13T21:13:26.157Z,7.13
2018-05-13T21:15:57.893Z,9.57
2018-05-13T21:18:27.413Z,7.40
2018-05-13T21:20:56.006Z,10.10
2018-05-13T21:23:24.442Z,8.63
2018-05-13T21:25:53.522Z,8.27
2018-05-13T21:28:21.869Z,6.20
2018-05-13T21:30:50.140Z,8.20
2018-05-13T21:33:18.565Z,8.00
2018-05-13T21:35:46.847Z,8.57
2018-05-13T21:38:15.131Z,10.30
2018-05-13T21:40:43.449Z,9.00
2018-05-13T21:43:11.728Z,10.47
2018-05-13T21:45:40.001Z,9.10
2018-05-13T21:48:08.280Z,8.73
2018-05-13T21:50:36.541Z,8.00
2018-05-13T21:53:05.665Z,7.33
2018-05-13T21:55:33.916Z,10.23
2018-05-13T21:58:02.323Z,9.13
2018-05-13T22:00:30.614Z,8.77
2018-05-13T22:02:58.961Z,11.40
2018-05-13T22:05:27.230Z,7.50
2018-05-13T22:07:55.506Z,15.07
2018-05-13T22:10:23.774Z,11.40
2018-05-13T22:12:52.797Z,16.00
2018-05-13T22:15:21.073Z,15.20
2018-05-13T22:17:49.367Z,21.43
2018-05-13T22:20:17.637Z,20.07
2018-05-13T22:22:45.995Z,20.97
2018-05-13T22:25:14.257Z,27.40
2018-05-13T22:27:42.521Z,24.87
2018-05-13T22:30:11.644Z,27.57
2018-05-13T22:32:39.912Z,22.53
2018-05-13T22:35:08.176Z,24.10
2018-05-13T22:37:37.227Z,20.50
2018-05-13T22:40:05.495Z,31.77
2018-05-13T22:42:33.753Z,29.63
2018-05-13T22:45:02.217Z,28.60
2018-05-13T22:47:30.484Z,29.37
2018-05-13T22:49:58.681Z,33.20
2018-05-13T22:52:27.119Z,34.00
2018-05-13T22:54:55.343Z,30.87
2018-05-13T22:57:23.613Z,27.03
2018-05-13T22:59:51.890Z,35.07
2018-05-13T23:02:20.148Z,32.03
2018-05-13T23:04:48.417Z,27.70
2018-05-13T23:07:16.700Z,29.20
2018-05-13T23:09:44.968Z,28.77
2018-05-13T23:12:13.993Z,35.13
2018-05-13T23:14:42.357Z,29.30
2018-05-13T23:17:10.607Z,29.67
2018-05-13T23:19:39.734Z,27.10
2018-05-13T23:22:08.021Z,37.90
2018-05-13T23:24:36.377Z,33.20
2018-05-13T23:27:04.677Z,24.73
2018-05-13T23:29:32.944Z,31.17
2018-05-13T23:32:01.316Z,28.30
2018-05-13T23:34:29.656Z,25.80
2018-05-13T23:36:57.869Z,32.93
2018-05-13T23:39:27.054Z,29.30
2018-05-13T23:41:56.118Z,33.37
2018-05-13T23:44:24.381Z,26.20
2018-05-13T23:46:52.792Z,29.57
2018-05-13T23:49:21.822Z,22.33
2018-05-13T23:51:50.099Z,24.50
2018-05-13T23:54:18.361Z,28.67
2018-05-13T23:56:46.625Z,29.07
2018-05-13T23:59:14.900Z,28.50
